sensor_id;sensor_type;location;lat;lon;timestamp;P1;durP1;ratioP1;P2;durP2;ratioP2
47161;SDS011;32921;53.256;8.198;2024-03-22T00:00:05;235.45;;;219.43;;
47161;SDS011;32921;53.256;8.198;2024-03-22T00:02:34;242.02;;;225.43;;
47161;SDS011;32921;53.256;8.198;2024-03-22T00:04:59;257.40;;;239.63;;
47161;SDS011;32921;53.256;8.198;2024-03-22T00:07:25;264.83;;;247.07;;
47161;SDS011;32921;53.256;8.198;2024-03-22T00:09:51;275.48;;;255.73;;
47161;SDS011;32921;53.256;8.198;2024-03-22T00:12:16;270.60;;;252.18;;
47161;SDS011;32921;53.256;8.198;2024-03-22T00:14:42;264.73;;;246.70;;
47161;SDS011;32921;53.256;8.198;2024-03-22T00:17:07;277.73;;;258.85;;
47161;SDS011;32921;53.256;8.198;2024-03-22T00:19:34;269.50;;;249.85;;
47161;SDS011;32921;53.256;8.198;2024-03-22T00:22:00;271.67;;;252.55;;
47161;SDS011;32921;53.256;8.198;2024-03-22T00:24:25;291.13;;;270.65;;
47161;SDS011;32921;53.256;8.198;2024-03-22T00:26:51;279.95;;;261.02;;
47161;SDS011;32921;53.256;8.198;2024-03-22T00:29:16;281.27;;;261.70;;
47161;SDS011;32921;53.256;8.198;2024-03-22T00:31:42;280.23;;;260.52;;
47161;SDS011;32921;53.256;8.198;2024-03-22T00:34:08;253.80;;;236.80;;
47161;SDS011;32921;53.256;8.198;2024-03-22T00:36:33;264.30;;;246.25;;
47161;SDS011;32921;53.256;8.198;2024-03-22T00:38:59;266.02;;;247.57;;
47161;SDS011;32921;53.256;8.198;2024-03-22T00:41:24;257.02;;;239.60;;
47161;SDS011;32921;53.256;8.198;2024-03-22T00:43:50;270.10;;;251.30;;
47161;SDS011;32921;53.256;8.198;2024-03-22T00:46:15;261.60;;;243.93;;
47161;SDS011;32921;53.256;8.198;2024-03-22T00:48:41;275.13;;;255.70;;
47161;SDS011;32921;53.256;8.198;2024-03-22T00:51:06;263.83;;;244.73;;
47161;SDS011;32921;53.256;8.198;2024-03-22T00:53:32;256.90;;;239.68;;
47161;SDS011;32921;53.256;8.198;2024-03-22T00:55:58;257.20;;;239.73;;
47161;SDS011;32921;53.256;8.198;2024-03-22T00:58:25;247.35;;;230.45;;
47161;SDS011;32921;53.256;8.198;2024-03-22T01:00:54;272.60;;;253.65;;
47161;SDS011;32921;53.256;8.198;2024-03-22T01:03:20;255.60;;;238.27;;
47161;SDS011;32921;53.256;8.198;2024-03-22T01:05:45;245.05;;;228.77;;
47161;SDS011;32921;53.256;8.198;2024-03-22T01:08:12;272.40;;;253.85;;
47161;SDS011;32921;53.256;8.198;2024-03-22T01:10:37;254.57;;;237.80;;
47161;SDS011;32921;53.256;8.198;2024-03-22T01:13:03;238.80;;;222.52;;
47161;SDS011;32921;53.256;8.198;2024-03-22T01:15:29;261.85;;;243.70;;
47161;SDS011;32921;53.256;8.198;2024-03-22T01:17:54;263.38;;;245.35;;
47161;SDS011;32921;53.256;8.198;2024-03-22T01:20:20;250.93;;;234.55;;
47161;SDS011;32921;53.256;8.198;2024-03-22T01:22:46;241.25;;;224.70;;
47161;SDS011;32921;53.256;8.198;2024-03-22T01:25:11;259.27;;;240.98;;
47161;SDS011;32921;53.256;8.198;2024-03-22T01:27:37;241.60;;;225.02;;
47161;SDS011;32921;53.256;8.198;2024-03-22T01:30:03;235.18;;;218.98;;
47161;SDS011;32921;53.256;8.198;2024-03-22T01:32:29;221.68;;;206.57;;
47161;SDS011;32921;53.256;8.198;2024-03-22T01:34:55;217.13;;;201.90;;
47161;SDS011;32921;53.256;8.198;2024-03-22T01:37:22;238.07;;;221.05;;
47161;SDS011;32921;53.256;8.198;2024-03-22T01:39:48;193.02;;;179.48;;
47161;SDS011;32921;53.256;8.198;2024-03-22T01:42:13;197.10;;;183.25;;
47161;SDS011;32921;53.256;8.198;2024-03-22T01:44:39;208.27;;;193.27;;
47161;SDS011;32921;53.256;8.198;2024-03-22T01:47:04;216.30;;;200.95;;
47161;SDS011;32921;53.256;8.198;2024-03-22T01:49:30;217.60;;;202.20;;
47161;SDS011;32921;53.256;8.198;2024-03-22T01:51:56;251.13;;;233.20;;
47161;SDS011;32921;53.256;8.198;2024-03-22T01:54:21;234.43;;;216.60;;
47161;SDS011;32921;53.256;8.198;2024-03-22T01:56:47;232.45;;;215.82;;
47161;SDS011;32921;53.256;8.198;2024-03-22T01:59:13;221.18;;;205.40;;
47161;SDS011;32921;53.256;8.198;2024-03-22T02:01:39;218.20;;;202.45;;
47161;SDS011;32921;53.256;8.198;2024-03-22T02:04:05;211.60;;;196.52;;
47161;SDS011;32921;53.256;8.198;2024-03-22T02:06:31;219.98;;;203.73;;
47161;SDS011;32921;53.256;8.198;2024-03-22T02:08:57;205.10;;;190.32;;
47161;SDS011;32921;53.256;8.198;2024-03-22T02:11:23;235.25;;;218.23;;
47161;SDS011;32921;53.256;8.198;2024-03-22T02:13:50;214.60;;;198.80;;
47161;SDS011;32921;53.256;8.198;2024-03-22T02:16:16;224.48;;;207.85;;
47161;SDS011;32921;53.256;8.198;2024-03-22T02:18:42;249.32;;;230.52;;
47161;SDS011;32921;53.256;8.198;2024-03-22T02:21:09;194.20;;;179.93;;
47161;SDS011;32921;53.256;8.198;2024-03-22T02:23:38;273.48;;;253.25;;
47161;SDS011;32921;53.256;8.198;2024-03-22T02:26:05;230.80;;;213.82;;
47161;SDS011;32921;53.256;8.198;2024-03-22T02:28:31;224.82;;;208.13;;
47161;SDS011;32921;53.256;8.198;2024-03-22T02:30:58;240.05;;;222.40;;
47161;SDS011;32921;53.256;8.198;2024-03-22T02:33:24;225.68;;;208.90;;
47161;SDS011;32921;53.256;8.198;2024-03-22T02:35:50;235.48;;;217.80;;
47161;SDS011;32921;53.256;8.198;2024-03-22T02:38:16;246.98;;;228.60;;
47161;SDS011;32921;53.256;8.198;2024-03-22T02:40:45;222.18;;;204.18;;
47161;SDS011;32921;53.256;8.198;2024-03-22T02:45:39;279.10;;;259.10;;
47161;SDS011;32921;53.256;8.198;2024-03-22T02:48:05;230.48;;;213.85;;
47161;SDS011;32921;53.256;8.198;2024-03-22T02:50:34;212.57;;;196.88;;
47161;SDS011;32921;53.256;8.198;2024-03-22T02:53:01;249.52;;;231.18;;
47161;SDS011;32921;53.256;8.198;2024-03-22T02:55:28;241.93;;;224.02;;
47161;SDS011;32921;53.256;8.198;2024-03-22T02:57:53;239.00;;;221.20;;
47161;SDS011;32921;53.256;8.198;2024-03-22T03:00:21;234.40;;;216.80;;
47161;SDS011;32921;53.256;8.198;2024-03-22T03:02:46;236.88;;;219.02;;
47161;SDS011;32921;53.256;8.198;2024-03-22T03:05:12;225.70;;;208.77;;
47161;SDS011;32921;53.256;8.198;2024-03-22T03:07:37;238.10;;;220.68;;
47161;SDS011;32921;53.256;8.198;2024-03-22T03:10:03;225.23;;;208.40;;
47161;SDS011;32921;53.256;8.198;2024-03-22T03:12:29;248.57;;;230.60;;
47161;SDS011;32921;53.256;8.198;2024-03-22T03:14:54;253.90;;;235.43;;
47161;SDS011;32921;53.256;8.198;2024-03-22T03:17:20;241.30;;;224.00;;
47161;SDS011;32921;53.256;8.198;2024-03-22T03:19:46;270.20;;;250.23;;
47161;SDS011;32921;53.256;8.198;2024-03-22T03:22:11;240.55;;;222.73;;
47161;SDS011;32921;53.256;8.198;2024-03-22T03:24:37;245.60;;;227.35;;
47161;SDS011;32921;53.256;8.198;2024-03-22T03:27:02;240.52;;;222.50;;
47161;SDS011;32921;53.256;8.198;2024-03-22T03:29:28;259.75;;;240.65;;
47161;SDS011;32921;53.256;8.198;2024-03-22T03:31:54;252.55;;;234.13;;
47161;SDS011;32921;53.256;8.198;2024-03-22T03:34:19;241.60;;;223.95;;
47161;SDS011;32921;53.256;8.198;2024-03-22T03:36:45;242.68;;;224.35;;
47161;SDS011;32921;53.256;8.198;2024-03-22T03:39:11;260.80;;;241.48;;
47161;SDS011;32921;53.256;8.198;2024-03-22T03:41:36;254.18;;;235.50;;
47161;SDS011;32921;53.256;8.198;2024-03-22T03:44:02;277.40;;;257.05;;
47161;SDS011;32921;53.256;8.198;2024-03-22T03:46:28;255.68;;;236.88;;
47161;SDS011;32921;53.256;8.198;2024-03-22T03:48:53;249.02;;;230.68;;
47161;SDS011;32921;53.256;8.198;2024-03-22T03:51:19;256.80;;;237.35;;
47161;SDS011;32921;53.256;8.198;2024-03-22T03:53:44;261.90;;;242.63;;
47161;SDS011;32921;53.256;8.198;2024-03-22T03:56:10;252.65;;;233.95;;
47161;SDS011;32921;53.256;8.198;2024-03-22T03:58:36;289.85;;;268.45;;
47161;SDS011;32921;53.256;8.198;2024-03-22T04:01:08;264.90;;;244.77;;
47161;SDS011;32921;53.256;8.198;2024-03-22T04:03:34;266.83;;;246.90;;
47161;SDS011;32921;53.256;8.198;2024-03-22T04:06:00;265.00;;;244.38;;
47161;SDS011;32921;53.256;8.198;2024-03-22T04:08:26;271.40;;;250.57;;
47161;SDS011;32921;53.256;8.198;2024-03-22T04:10:52;250.32;;;230.98;;
47161;SDS011;32921;53.256;8.198;2024-03-22T04:13:22;272.85;;;252.27;;
47161;SDS011;32921;53.256;8.198;2024-03-22T04:15:51;288.75;;;266.35;;
47161;SDS011;32921;53.256;8.198;2024-03-22T04:18:17;266.75;;;245.82;;
47161;SDS011;32921;53.256;8.198;2024-03-22T04:20:52;238.48;;;220.73;;
47161;SDS011;32921;53.256;8.198;2024-03-22T04:23:19;252.95;;;233.57;;
47161;SDS011;32921;53.256;8.198;2024-03-22T04:25:55;243.55;;;224.68;;
47161;SDS011;32921;53.256;8.198;2024-03-22T04:28:21;275.80;;;254.65;;
47161;SDS011;32921;53.256;8.198;2024-03-22T04:30:55;278.77;;;256.77;;
47161;SDS011;32921;53.256;8.198;2024-03-22T04:33:21;271.75;;;250.50;;
47161;SDS011;32921;53.256;8.198;2024-03-22T04:35:47;248.25;;;229.68;;
47161;SDS011;32921;53.256;8.198;2024-03-22T04:38:12;251.05;;;231.40;;
47161;SDS011;32921;53.256;8.198;2024-03-22T04:40:39;267.42;;;246.75;;
47161;SDS011;32921;53.256;8.198;2024-03-22T04:43:05;272.02;;;251.52;;
47161;SDS011;32921;53.256;8.198;2024-03-22T04:45:31;265.33;;;245.07;;
47161;SDS011;32921;53.256;8.198;2024-03-22T04:47:56;273.73;;;253.00;;
47161;SDS011;32921;53.256;8.198;2024-03-22T04:50:22;273.73;;;253.40;;
47161;SDS011;32921;53.256;8.198;2024-03-22T04:52:47;258.33;;;238.45;;
47161;SDS011;32921;53.256;8.198;2024-03-22T04:55:13;254.00;;;235.40;;
47161;SDS011;32921;53.256;8.198;2024-03-22T04:57:38;261.85;;;242.18;;
47161;SDS011;32921;53.256;8.198;2024-03-22T05:00:04;252.38;;;233.52;;
47161;SDS011;32921;53.256;8.198;2024-03-22T05:02:33;281.30;;;260.35;;
47161;SDS011;32921;53.256;8.198;2024-03-22T05:04:58;275.60;;;254.40;;
47161;SDS011;32921;53.256;8.198;2024-03-22T05:07:24;293.75;;;271.48;;
47161;SDS011;32921;53.256;8.198;2024-03-22T05:09:49;290.90;;;268.20;;
47161;SDS011;32921;53.256;8.198;2024-03-22T05:12:15;284.23;;;262.33;;
47161;SDS011;32921;53.256;8.198;2024-03-22T05:14:40;306.42;;;283.13;;
47161;SDS011;32921;53.256;8.198;2024-03-22T05:17:06;293.83;;;272.20;;
47161;SDS011;32921;53.256;8.198;2024-03-22T05:19:32;287.35;;;265.55;;
47161;SDS011;32921;53.256;8.198;2024-03-22T05:21:57;305.95;;;282.35;;
47161;SDS011;32921;53.256;8.198;2024-03-22T05:24:23;274.98;;;254.40;;
47161;SDS011;32921;53.256;8.198;2024-03-22T05:26:49;274.40;;;253.98;;
47161;SDS011;32921;53.256;8.198;2024-03-22T05:29:14;295.63;;;273.55;;
47161;SDS011;32921;53.256;8.198;2024-03-22T05:31:47;306.85;;;283.35;;
47161;SDS011;32921;53.256;8.198;2024-03-22T05:34:14;279.58;;;258.15;;
47161;SDS011;32921;53.256;8.198;2024-03-22T05:36:40;269.17;;;249.05;;
47161;SDS011;32921;53.256;8.198;2024-03-22T05:39:06;295.42;;;273.13;;
47161;SDS011;32921;53.256;8.198;2024-03-22T05:41:31;302.75;;;279.40;;
47161;SDS011;32921;53.256;8.198;2024-03-22T05:43:57;281.20;;;259.70;;
47161;SDS011;32921;53.256;8.198;2024-03-22T05:46:23;317.25;;;293.05;;
47161;SDS011;32921;53.256;8.198;2024-03-22T05:48:48;281.23;;;260.45;;
47161;SDS011;32921;53.256;8.198;2024-03-22T05:51:15;302.02;;;279.45;;
47161;SDS011;32921;53.256;8.198;2024-03-22T05:53:41;301.33;;;278.55;;
47161;SDS011;32921;53.256;8.198;2024-03-22T05:56:07;270.90;;;250.85;;
47161;SDS011;32921;53.256;8.198;2024-03-22T05:58:33;295.58;;;272.98;;
47161;SDS011;32921;53.256;8.198;2024-03-22T06:00:59;262.10;;;242.82;;
47161;SDS011;32921;53.256;8.198;2024-03-22T06:03:25;258.38;;;239.02;;
47161;SDS011;32921;53.256;8.198;2024-03-22T06:05:50;222.93;;;205.90;;
47161;SDS011;32921;53.256;8.198;2024-03-22T06:08:20;211.93;;;195.02;;
47161;SDS011;32921;53.256;8.198;2024-03-22T06:10:46;211.18;;;193.50;;
47161;SDS011;32921;53.256;8.198;2024-03-22T06:13:11;257.52;;;234.88;;
47161;SDS011;32921;53.256;8.198;2024-03-22T06:15:37;201.13;;;183.20;;
47161;SDS011;32921;53.256;8.198;2024-03-22T06:18:03;240.48;;;219.02;;
47161;SDS011;32921;53.256;8.198;2024-03-22T06:20:28;213.35;;;194.48;;
47161;SDS011;32921;53.256;8.198;2024-03-22T06:22:55;217.65;;;198.52;;
47161;SDS011;32921;53.256;8.198;2024-03-22T06:25:22;221.43;;;202.27;;
47161;SDS011;32921;53.256;8.198;2024-03-22T06:27:47;224.30;;;204.43;;
47161;SDS011;32921;53.256;8.198;2024-03-22T06:30:13;215.43;;;197.15;;
47161;SDS011;32921;53.256;8.198;2024-03-22T06:32:38;265.25;;;242.30;;
47161;SDS011;32921;53.256;8.198;2024-03-22T06:35:04;271.02;;;247.48;;
47161;SDS011;32921;53.256;8.198;2024-03-22T06:37:30;223.20;;;204.07;;
47161;SDS011;32921;53.256;8.198;2024-03-22T06:39:56;235.27;;;214.85;;
47161;SDS011;32921;53.256;8.198;2024-03-22T06:42:23;246.38;;;225.52;;
47161;SDS011;32921;53.256;8.198;2024-03-22T06:44:49;196.77;;;179.98;;
47161;SDS011;32921;53.256;8.198;2024-03-22T06:47:15;211.65;;;193.77;;
47161;SDS011;32921;53.256;8.198;2024-03-22T06:49:40;201.50;;;184.93;;
47161;SDS011;32921;53.256;8.198;2024-03-22T06:52:06;204.52;;;187.85;;
47161;SDS011;32921;53.256;8.198;2024-03-22T06:54:31;205.25;;;188.95;;
47161;SDS011;32921;53.256;8.198;2024-03-22T06:56:57;195.75;;;181.10;;
47161;SDS011;32921;53.256;8.198;2024-03-22T06:59:22;214.07;;;197.90;;
47161;SDS011;32921;53.256;8.198;2024-03-22T07:01:48;270.67;;;249.48;;
47161;SDS011;32921;53.256;8.198;2024-03-22T07:04:14;282.77;;;255.25;;
47161;SDS011;32921;53.256;8.198;2024-03-22T07:06:39;310.08;;;282.95;;
47161;SDS011;32921;53.256;8.198;2024-03-22T07:09:07;347.88;;;316.25;;
47161;SDS011;32921;53.256;8.198;2024-03-22T07:11:32;406.02;;;367.35;;
47161;SDS011;32921;53.256;8.198;2024-03-22T07:13:58;422.05;;;381.00;;
47161;SDS011;32921;53.256;8.198;2024-03-22T07:16:24;473.40;;;426.13;;
47161;SDS011;32921;53.256;8.198;2024-03-22T07:18:49;562.95;;;506.25;;
47161;SDS011;32921;53.256;8.198;2024-03-22T07:21:15;494.85;;;444.35;;
47161;SDS011;32921;53.256;8.198;2024-03-22T07:23:40;443.95;;;398.35;;
47161;SDS011;32921;53.256;8.198;2024-03-22T07:26:06;455.67;;;407.02;;
47161;SDS011;32921;53.256;8.198;2024-03-22T07:28:33;480.55;;;427.85;;
47161;SDS011;32921;53.256;8.198;2024-03-22T07:30:59;502.42;;;448.45;;
47161;SDS011;32921;53.256;8.198;2024-03-22T07:33:24;503.02;;;450.05;;
47161;SDS011;32921;53.256;8.198;2024-03-22T07:35:50;510.77;;;457.52;;
47161;SDS011;32921;53.256;8.198;2024-03-22T07:38:16;512.75;;;460.63;;
47161;SDS011;32921;53.256;8.198;2024-03-22T07:40:42;526.97;;;473.60;;
47161;SDS011;32921;53.256;8.198;2024-03-22T07:43:08;521.67;;;467.92;;
47161;SDS011;32921;53.256;8.198;2024-03-22T07:45:34;548.45;;;497.02;;
47161;SDS011;32921;53.256;8.198;2024-03-22T07:47:59;498.80;;;449.80;;
47161;SDS011;32921;53.256;8.198;2024-03-22T07:50:25;515.17;;;466.30;;
47161;SDS011;32921;53.256;8.198;2024-03-22T07:52:51;549.65;;;500.10;;
47161;SDS011;32921;53.256;8.198;2024-03-22T07:55:16;508.63;;;464.20;;
47161;SDS011;32921;53.256;8.198;2024-03-22T07:57:42;546.55;;;498.52;;
47161;SDS011;32921;53.256;8.198;2024-03-22T08:00:08;562.75;;;512.55;;
47161;SDS011;32921;53.256;8.198;2024-03-22T08:02:34;550.50;;;503.38;;
47161;SDS011;32921;53.256;8.198;2024-03-22T08:05:00;567.30;;;518.42;;
47161;SDS011;32921;53.256;8.198;2024-03-22T08:07:26;687.72;;;629.80;;
47161;SDS011;32921;53.256;8.198;2024-03-22T08:09:52;628.13;;;575.13;;
47161;SDS011;32921;53.256;8.198;2024-03-22T08:12:18;656.45;;;601.75;;
47161;SDS011;32921;53.256;8.198;2024-03-22T08:14:44;609.80;;;558.45;;
47161;SDS011;32921;53.256;8.198;2024-03-22T08:17:10;620.05;;;567.80;;
47161;SDS011;32921;53.256;8.198;2024-03-22T08:19:36;639.13;;;584.28;;
47161;SDS011;32921;53.256;8.198;2024-03-22T08:22:03;571.88;;;523.22;;
47161;SDS011;32921;53.256;8.198;2024-03-22T08:24:29;545.30;;;498.10;;
47161;SDS011;32921;53.256;8.198;2024-03-22T08:26:55;568.17;;;518.03;;
47161;SDS011;32921;53.256;8.198;2024-03-22T08:29:20;522.60;;;478.20;;
47161;SDS011;32921;53.256;8.198;2024-03-22T08:31:46;571.60;;;522.20;;
47161;SDS011;32921;53.256;8.198;2024-03-22T08:34:12;605.92;;;554.08;;
47161;SDS011;32921;53.256;8.198;2024-03-22T08:36:37;588.80;;;538.88;;
47161;SDS011;32921;53.256;8.198;2024-03-22T08:39:04;629.78;;;576.38;;
47161;SDS011;32921;53.256;8.198;2024-03-22T08:41:31;622.05;;;568.17;;
47161;SDS011;32921;53.256;8.198;2024-03-22T08:43:57;580.60;;;531.42;;
47161;SDS011;32921;53.256;8.198;2024-03-22T08:46:22;587.22;;;537.50;;
47161;SDS011;32921;53.256;8.198;2024-03-22T08:48:51;544.90;;;497.40;;
47161;SDS011;32921;53.256;8.198;2024-03-22T08:51:17;564.95;;;517.30;;
47161;SDS011;32921;53.256;8.198;2024-03-22T08:53:42;529.78;;;484.73;;
47161;SDS011;32921;53.256;8.198;2024-03-22T08:56:08;581.30;;;532.13;;
47161;SDS011;32921;53.256;8.198;2024-03-22T08:58:33;621.53;;;568.13;;
47161;SDS011;32921;53.256;8.198;2024-03-22T09:00:59;576.88;;;527.95;;
47161;SDS011;32921;53.256;8.198;2024-03-22T09:03:24;583.15;;;534.13;;
47161;SDS011;32921;53.256;8.198;2024-03-22T09:05:53;621.55;;;568.10;;
47161;SDS011;32921;53.256;8.198;2024-03-22T09:08:20;607.85;;;556.78;;
47161;SDS011;32921;53.256;8.198;2024-03-22T09:10:46;606.20;;;555.22;;
47161;SDS011;32921;53.256;8.198;2024-03-22T09:13:12;626.38;;;573.30;;
47161;SDS011;32921;53.256;8.198;2024-03-22T09:15:38;550.65;;;504.10;;
47161;SDS011;32921;53.256;8.198;2024-03-22T09:18:04;564.28;;;517.25;;
47161;SDS011;32921;53.256;8.198;2024-03-22T09:20:30;594.05;;;543.65;;
47161;SDS011;32921;53.256;8.198;2024-03-22T09:22:57;597.28;;;546.72;;
47161;SDS011;32921;53.256;8.198;2024-03-22T09:25:23;602.80;;;552.17;;
47161;SDS011;32921;53.256;8.198;2024-03-22T09:27:49;656.95;;;602.08;;
47161;SDS011;32921;53.256;8.198;2024-03-22T09:30:15;660.58;;;605.72;;
47161;SDS011;32921;53.256;8.198;2024-03-22T09:32:41;632.80;;;580.00;;
47161;SDS011;32921;53.256;8.198;2024-03-22T09:35:07;617.55;;;564.97;;
47161;SDS011;32921;53.256;8.198;2024-03-22T09:37:33;677.47;;;618.95;;
47161;SDS011;32921;53.256;8.198;2024-03-22T09:39:59;661.85;;;603.25;;
47161;SDS011;32921;53.256;8.198;2024-03-22T09:42:25;671.80;;;612.78;;
47161;SDS011;32921;53.256;8.198;2024-03-22T09:44:51;687.97;;;625.42;;
47161;SDS011;32921;53.256;8.198;2024-03-22T09:47:17;662.92;;;603.75;;
47161;SDS011;32921;53.256;8.198;2024-03-22T09:49:45;598.92;;;543.05;;
47161;SDS011;32921;53.256;8.198;2024-03-22T09:52:12;571.38;;;517.40;;
47161;SDS011;32921;53.256;8.198;2024-03-22T09:54:40;534.53;;;484.55;;
47161;SDS011;32921;53.256;8.198;2024-03-22T09:57:08;554.75;;;500.45;;
47161;SDS011;32921;53.256;8.198;2024-03-22T09:59:38;511.38;;;462.80;;
47161;SDS011;32921;53.256;8.198;2024-03-22T10:02:04;533.15;;;478.65;;
47161;SDS011;32921;53.256;8.198;2024-03-22T10:04:30;479.55;;;433.88;;
47161;SDS011;32921;53.256;8.198;2024-03-22T10:06:55;573.53;;;518.13;;
47161;SDS011;32921;53.256;8.198;2024-03-22T10:09:28;595.45;;;540.55;;
47161;SDS011;32921;53.256;8.198;2024-03-22T10:11:55;642.40;;;581.40;;
47161;SDS011;32921;53.256;8.198;2024-03-22T10:14:21;592.22;;;537.65;;
47161;SDS011;32921;53.256;8.198;2024-03-22T10:16:46;662.28;;;598.75;;
47161;SDS011;32921;53.256;8.198;2024-03-22T10:19:12;642.13;;;581.58;;
47161;SDS011;32921;53.256;8.198;2024-03-22T10:21:37;535.35;;;480.92;;
47161;SDS011;32921;53.256;8.198;2024-03-22T10:24:03;639.60;;;579.33;;
47161;SDS011;32921;53.256;8.198;2024-03-22T10:26:29;506.27;;;456.02;;
47161;SDS011;32921;53.256;8.198;2024-03-22T10:28:57;527.45;;;472.80;;
47161;SDS011;32921;53.256;8.198;2024-03-22T10:31:23;535.70;;;481.85;;
47161;SDS011;32921;53.256;8.198;2024-03-22T10:33:48;524.88;;;472.77;;
47161;SDS011;32921;53.256;8.198;2024-03-22T10:36:15;480.13;;;435.60;;
47161;SDS011;32921;53.256;8.198;2024-03-22T10:38:41;548.83;;;495.77;;
47161;SDS011;32921;53.256;8.198;2024-03-22T10:41:08;632.88;;;572.35;;
47161;SDS011;32921;53.256;8.198;2024-03-22T10:43:34;571.90;;;517.50;;
47161;SDS011;32921;53.256;8.198;2024-03-22T10:46:01;571.97;;;518.72;;
47161;SDS011;32921;53.256;8.198;2024-03-22T10:48:29;596.30;;;542.28;;
47161;SDS011;32921;53.256;8.198;2024-03-22T10:50:59;683.20;;;621.45;;
47161;SDS011;32921;53.256;8.198;2024-03-22T10:53:26;567.22;;;515.70;;
47161;SDS011;32921;53.256;8.198;2024-03-22T10:55:56;592.33;;;539.15;;
47161;SDS011;32921;53.256;8.198;2024-03-22T10:58:25;618.38;;;565.13;;
47161;SDS011;32921;53.256;8.198;2024-03-22T11:00:51;657.65;;;598.80;;
47161;SDS011;32921;53.256;8.198;2024-03-22T11:03:20;625.60;;;569.80;;
47161;SDS011;32921;53.256;8.198;2024-03-22T11:05:48;574.05;;;522.40;;
47161;SDS011;32921;53.256;8.198;2024-03-22T11:08:25;651.50;;;593.83;;
47161;SDS011;32921;53.256;8.198;2024-03-22T11:10:52;640.85;;;584.13;;
47161;SDS011;32921;53.256;8.198;2024-03-22T11:13:18;614.35;;;558.92;;
47161;SDS011;32921;53.256;8.198;2024-03-22T11:15:43;686.63;;;624.60;;
47161;SDS011;32921;53.256;8.198;2024-03-22T11:18:12;595.95;;;541.13;;
47161;SDS011;32921;53.256;8.198;2024-03-22T11:20:38;591.72;;;534.53;;
47161;SDS011;32921;53.256;8.198;2024-03-22T11:23:04;584.17;;;526.55;;
47161;SDS011;32921;53.256;8.198;2024-03-22T11:25:33;608.67;;;549.95;;
47161;SDS011;32921;53.256;8.198;2024-03-22T11:27:59;592.78;;;534.92;;
47161;SDS011;32921;53.256;8.198;2024-03-22T11:30:29;552.42;;;497.80;;
47161;SDS011;32921;53.256;8.198;2024-03-22T11:32:56;530.72;;;479.25;;
47161;SDS011;32921;53.256;8.198;2024-03-22T11:35:22;625.60;;;565.30;;
47161;SDS011;32921;53.256;8.198;2024-03-22T11:37:49;644.42;;;581.70;;
47161;SDS011;32921;53.256;8.198;2024-03-22T11:40:16;607.78;;;547.53;;
47161;SDS011;32921;53.256;8.198;2024-03-22T11:42:42;622.63;;;560.10;;
47161;SDS011;32921;53.256;8.198;2024-03-22T11:45:11;589.85;;;527.72;;
47161;SDS011;32921;53.256;8.198;2024-03-22T11:47:39;535.92;;;478.02;;
47161;SDS011;32921;53.256;8.198;2024-03-22T11:50:05;604.10;;;539.28;;
47161;SDS011;32921;53.256;8.198;2024-03-22T11:52:31;595.95;;;531.20;;
47161;SDS011;32921;53.256;8.198;2024-03-22T11:54:57;489.00;;;412.02;;
47161;SDS011;32921;53.256;8.198;2024-03-22T11:57:23;576.95;;;483.38;;
47161;SDS011;32921;53.256;8.198;2024-03-22T11:59:50;509.35;;;426.73;;
47161;SDS011;32921;53.256;8.198;2024-03-22T12:02:16;483.73;;;400.25;;
47161;SDS011;32921;53.256;8.198;2024-03-22T12:04:42;577.15;;;469.70;;
47161;SDS011;32921;53.256;8.198;2024-03-22T12:07:18;537.25;;;429.23;;
47161;SDS011;32921;53.256;8.198;2024-03-22T12:09:44;560.58;;;491.85;;
47161;SDS011;32921;53.256;8.198;2024-03-22T12:12:10;540.55;;;467.27;;
47161;SDS011;32921;53.256;8.198;2024-03-22T12:14:38;530.70;;;454.00;;
47161;SDS011;32921;53.256;8.198;2024-03-22T12:17:04;545.15;;;447.73;;
47161;SDS011;32921;53.256;8.198;2024-03-22T12:19:30;561.65;;;469.80;;
47161;SDS011;32921;53.256;8.198;2024-03-22T12:21:56;613.05;;;529.65;;
47161;SDS011;32921;53.256;8.198;2024-03-22T12:24:22;533.63;;;450.73;;
47161;SDS011;32921;53.256;8.198;2024-03-22T12:26:48;570.40;;;467.80;;
47161;SDS011;32921;53.256;8.198;2024-03-22T12:29:17;534.60;;;440.83;;
47161;SDS011;32921;53.256;8.198;2024-03-22T12:31:43;499.52;;;411.83;;
47161;SDS011;32921;53.256;8.198;2024-03-22T12:34:09;461.98;;;377.15;;
47161;SDS011;32921;53.256;8.198;2024-03-22T12:36:35;593.85;;;505.10;;
47161;SDS011;32921;53.256;8.198;2024-03-22T12:39:01;627.15;;;532.25;;
47161;SDS011;32921;53.256;8.198;2024-03-22T12:41:28;579.00;;;478.38;;
47161;SDS011;32921;53.256;8.198;2024-03-22T12:43:55;567.97;;;475.90;;
47161;SDS011;32921;53.256;8.198;2024-03-22T12:46:20;526.78;;;448.88;;
47161;SDS011;32921;53.256;8.198;2024-03-22T12:48:46;699.72;;;610.67;;
47161;SDS011;32921;53.256;8.198;2024-03-22T12:51:12;694.80;;;620.97;;
47161;SDS011;32921;53.256;8.198;2024-03-22T12:53:37;695.55;;;624.42;;
47161;SDS011;32921;53.256;8.198;2024-03-22T12:56:03;625.92;;;564.70;;
47161;SDS011;32921;53.256;8.198;2024-03-22T12:58:29;582.08;;;527.20;;
47161;SDS011;32921;53.256;8.198;2024-03-22T13:00:56;575.65;;;522.58;;
47161;SDS011;32921;53.256;8.198;2024-03-22T13:03:22;625.08;;;564.00;;
47161;SDS011;32921;53.256;8.198;2024-03-22T13:05:47;598.95;;;541.22;;
47161;SDS011;32921;53.256;8.198;2024-03-22T13:08:13;604.25;;;546.42;;
47161;SDS011;32921;53.256;8.198;2024-03-22T13:10:39;603.40;;;545.40;;
47161;SDS011;32921;53.256;8.198;2024-03-22T13:13:08;564.45;;;510.85;;
47161;SDS011;32921;53.256;8.198;2024-03-22T13:15:34;589.72;;;533.22;;
47161;SDS011;32921;53.256;8.198;2024-03-22T13:18:02;611.70;;;553.30;;
47161;SDS011;32921;53.256;8.198;2024-03-22T13:20:27;603.05;;;544.13;;
47161;SDS011;32921;53.256;8.198;2024-03-22T13:22:53;533.55;;;482.90;;
47161;SDS011;32921;53.256;8.198;2024-03-22T13:25:19;559.83;;;507.35;;
47161;SDS011;32921;53.256;8.198;2024-03-22T13:27:44;545.92;;;494.42;;
47161;SDS011;32921;53.256;8.198;2024-03-22T13:30:10;539.65;;;489.08;;
47161;SDS011;32921;53.256;8.198;2024-03-22T13:32:37;569.35;;;515.80;;
47161;SDS011;32921;53.256;8.198;2024-03-22T13:35:03;569.92;;;514.92;;
47161;SDS011;32921;53.256;8.198;2024-03-22T13:37:29;597.85;;;539.38;;
47161;SDS011;32921;53.256;8.198;2024-03-22T13:39:55;620.40;;;560.35;;
47161;SDS011;32921;53.256;8.198;2024-03-22T13:42:21;559.33;;;507.58;;
47161;SDS011;32921;53.256;8.198;2024-03-22T13:44:46;502.50;;;457.08;;
47161;SDS011;32921;53.256;8.198;2024-03-22T13:47:12;419.50;;;381.92;;
47161;SDS011;32921;53.256;8.198;2024-03-22T13:49:38;369.50;;;338.50;;
47161;SDS011;32921;53.256;8.198;2024-03-22T13:52:06;317.27;;;291.85;;